sensor_id;sensor_type;location;lat;lon;timestamp;P1;durP1;ratioP1;P2;durP2;ratioP2
5912;SDS011;2982;42.684;23.356;2022-09-09T00:04:27;9.80;;;8.85;;
5912;SDS011;2982;42.684;23.356;2022-09-09T00:12:25;9.02;;;8.32;;
5912;SDS011;2982;42.684;23.356;2022-09-09T00:15:02;10.60;;;9.32;;
5912;SDS011;2982;42.684;23.356;2022-09-09T00:17:43;9.98;;;9.07;;
5912;SDS011;2982;42.684;23.356;2022-09-09T00:20:16;10.38;;;9.43;;
5912;SDS011;2982;42.684;23.356;2022-09-09T00:22:51;9.52;;;8.82;;
5912;SDS011;2982;42.684;23.356;2022-09-09T00:25:45;10.85;;;10.00;;
5912;SDS011;2982;42.684;23.356;2022-09-09T00:28:16;11.15;;;10.00;;
5912;SDS011;2982;42.684;23.356;2022-09-09T00:30:45;13.82;;;10.40;;
5912;SDS011;2982;42.684;23.356;2022-09-09T00:33:12;10.77;;;9.85;;
5912;SDS011;2982;42.684;23.356;2022-09-09T00:35:40;10.38;;;9.63;;
5912;SDS011;2982;42.684;23.356;2022-09-09T00:38:14;10.27;;;9.43;;
5912;SDS011;2982;42.684;23.356;2022-09-09T00:40:53;10.63;;;9.82;;
5912;SDS011;2982;42.684;23.356;2022-09-09T00:43:30;11.13;;;10.13;;
5912;SDS011;2982;42.684;23.356;2022-09-09T00:55:13;11.98;;;10.73;;
5912;SDS011;2982;42.684;23.356;2022-09-09T01:06:01;18.35;;;11.20;;
5912;SDS011;2982;42.684;23.356;2022-09-09T01:11:01;11.73;;;10.55;;
5912;SDS011;2982;42.684;23.356;2022-09-09T01:13:27;11.25;;;10.30;;
5912;SDS011;2982;42.684;23.356;2022-09-09T01:15:54;11.23;;;10.40;;
5912;SDS011;2982;42.684;23.356;2022-09-09T01:18:23;11.98;;;10.98;;
5912;SDS011;2982;42.684;23.356;2022-09-09T01:28:47;11.38;;;9.95;;
5912;SDS011;2982;42.684;23.356;2022-09-09T01:31:17;12.55;;;11.02;;
5912;SDS011;2982;42.684;23.356;2022-09-09T01:33:45;11.43;;;10.00;;
5912;SDS011;2982;42.684;23.356;2022-09-09T01:39:05;14.48;;;10.80;;
5912;SDS011;2982;42.684;23.356;2022-09-09T01:41:30;12.85;;;11.70;;
5912;SDS011;2982;42.684;23.356;2022-09-09T01:43:56;16.60;;;11.10;;
5912;SDS011;2982;42.684;23.356;2022-09-09T01:46:22;12.25;;;11.05;;
5912;SDS011;2982;42.684;23.356;2022-09-09T01:48:48;11.35;;;10.35;;
5912;SDS011;2982;42.684;23.356;2022-09-09T01:51:16;17.95;;;11.68;;
5912;SDS011;2982;42.684;23.356;2022-09-09T01:53:41;13.77;;;10.63;;
5912;SDS011;2982;42.684;23.356;2022-09-09T01:59:18;12.20;;;10.88;;
5912;SDS011;2982;42.684;23.356;2022-09-09T02:02:09;13.52;;;10.32;;
5912;SDS011;2982;42.684;23.356;2022-09-09T02:04:43;18.77;;;11.90;;
5912;SDS011;2982;42.684;23.356;2022-09-09T02:07:27;11.55;;;10.68;;
5912;SDS011;2982;42.684;23.356;2022-09-09T02:09:57;10.93;;;10.07;;
5912;SDS011;2982;42.684;23.356;2022-09-09T02:12:35;11.07;;;10.07;;
5912;SDS011;2982;42.684;23.356;2022-09-09T02:15:07;12.32;;;11.05;;
5912;SDS011;2982;42.684;23.356;2022-09-09T02:17:42;11.77;;;10.43;;
5912;SDS011;2982;42.684;23.356;2022-09-09T02:20:08;11.40;;;10.40;;
5912;SDS011;2982;42.684;23.356;2022-09-09T02:22:37;15.68;;;11.48;;
5912;SDS011;2982;42.684;23.356;2022-09-09T02:25:05;12.40;;;11.23;;
5912;SDS011;2982;42.684;23.356;2022-09-09T02:27:33;12.60;;;11.48;;
5912;SDS011;2982;42.684;23.356;2022-09-09T02:29:59;12.25;;;11.20;;
5912;SDS011;2982;42.684;23.356;2022-09-09T02:32:26;12.13;;;10.75;;
5912;SDS011;2982;42.684;23.356;2022-09-09T02:34:55;12.40;;;11.32;;
5912;SDS011;2982;42.684;23.356;2022-09-09T02:37:27;12.10;;;11.10;;
5912;SDS011;2982;42.684;23.356;2022-09-09T02:40:02;11.88;;;10.77;;
5912;SDS011;2982;42.684;23.356;2022-09-09T02:42:28;13.95;;;11.38;;
5912;SDS011;2982;42.684;23.356;2022-09-09T02:44:53;11.85;;;10.77;;
5912;SDS011;2982;42.684;23.356;2022-09-09T02:50:15;12.02;;;10.85;;
5912;SDS011;2982;42.684;23.356;2022-09-09T02:52:59;15.07;;;11.57;;
5912;SDS011;2982;42.684;23.356;2022-09-09T02:58:17;12.95;;;10.85;;
5912;SDS011;2982;42.684;23.356;2022-09-09T03:00:44;12.88;;;11.38;;
5912;SDS011;2982;42.684;23.356;2022-09-09T03:03:11;12.07;;;11.07;;
5912;SDS011;2982;42.684;23.356;2022-09-09T03:05:37;11.63;;;10.68;;
5912;SDS011;2982;42.684;23.356;2022-09-09T03:08:03;12.35;;;11.23;;
5912;SDS011;2982;42.684;23.356;2022-09-09T03:10:28;13.82;;;12.38;;
5912;SDS011;2982;42.684;23.356;2022-09-09T03:12:54;15.00;;;13.50;;
5912;SDS011;2982;42.684;23.356;2022-09-09T03:15:19;13.95;;;12.63;;
5912;SDS011;2982;42.684;23.356;2022-09-09T03:17:44;13.85;;;12.52;;
5912;SDS011;2982;42.684;23.356;2022-09-09T03:20:10;14.30;;;12.88;;
5912;SDS011;2982;42.684;23.356;2022-09-09T03:22:35;13.95;;;12.57;;
5912;SDS011;2982;42.684;23.356;2022-09-09T03:25:01;13.63;;;12.25;;
5912;SDS011;2982;42.684;23.356;2022-09-09T03:27:26;12.68;;;11.40;;
5912;SDS011;2982;42.684;23.356;2022-09-09T03:29:52;12.32;;;11.13;;
5912;SDS011;2982;42.684;23.356;2022-09-09T03:32:18;14.07;;;12.68;;
5912;SDS011;2982;42.684;23.356;2022-09-09T03:34:44;13.98;;;12.45;;
5912;SDS011;2982;42.684;23.356;2022-09-09T03:37:09;14.88;;;11.82;;
5912;SDS011;2982;42.684;23.356;2022-09-09T03:39:35;13.82;;;12.45;;
5912;SDS011;2982;42.684;23.356;2022-09-09T03:42:00;13.48;;;12.00;;
5912;SDS011;2982;42.684;23.356;2022-09-09T03:44:26;12.98;;;11.88;;
5912;SDS011;2982;42.684;23.356;2022-09-09T03:46:51;14.45;;;12.98;;
5912;SDS011;2982;42.684;23.356;2022-09-09T03:49:16;14.30;;;12.32;;
5912;SDS011;2982;42.684;23.356;2022-09-09T03:51:41;16.88;;;12.57;;
5912;SDS011;2982;42.684;23.356;2022-09-09T03:54:07;14.32;;;12.50;;
5912;SDS011;2982;42.684;23.356;2022-09-09T03:56:32;13.18;;;12.07;;
5912;SDS011;2982;42.684;23.356;2022-09-09T03:58:57;14.45;;;12.18;;
5912;SDS011;2982;42.684;23.356;2022-09-09T04:01:23;15.65;;;12.75;;
5912;SDS011;2982;42.684;23.356;2022-09-09T04:03:48;14.85;;;13.52;;
5912;SDS011;2982;42.684;23.356;2022-09-09T04:06:14;14.10;;;12.80;;
5912;SDS011;2982;42.684;23.356;2022-09-09T04:08:39;14.18;;;12.45;;
5912;SDS011;2982;42.684;23.356;2022-09-09T04:11:05;21.27;;;14.43;;
5912;SDS011;2982;42.684;23.356;2022-09-09T04:13:31;15.07;;;13.63;;
5912;SDS011;2982;42.684;23.356;2022-09-09T04:15:57;17.77;;;13.57;;
5912;SDS011;2982;42.684;23.356;2022-09-09T04:18:24;16.73;;;13.05;;
5912;SDS011;2982;42.684;23.356;2022-09-09T04:20:51;16.77;;;13.18;;
5912;SDS011;2982;42.684;23.356;2022-09-09T04:23:17;15.02;;;13.52;;
5912;SDS011;2982;42.684;23.356;2022-09-09T04:25:47;14.30;;;12.88;;
5912;SDS011;2982;42.684;23.356;2022-09-09T04:28:14;13.38;;;12.18;;
5912;SDS011;2982;42.684;23.356;2022-09-09T04:30:40;12.73;;;11.55;;
5912;SDS011;2982;42.684;23.356;2022-09-09T04:33:06;12.48;;;11.23;;
5912;SDS011;2982;42.684;23.356;2022-09-09T04:35:32;15.68;;;11.38;;
5912;SDS011;2982;42.684;23.356;2022-09-09T04:37:58;17.85;;;11.70;;
5912;SDS011;2982;42.684;23.356;2022-09-09T04:40:23;12.07;;;10.98;;
5912;SDS011;2982;42.684;23.356;2022-09-09T04:42:49;16.67;;;10.40;;
5912;SDS011;2982;42.684;23.356;2022-09-09T04:45:14;11.18;;;10.02;;
5912;SDS011;2982;42.684;23.356;2022-09-09T04:47:39;13.43;;;10.13;;
5912;SDS011;2982;42.684;23.356;2022-09-09T04:50:05;16.00;;;10.55;;
5912;SDS011;2982;42.684;23.356;2022-09-09T04:52:30;11.85;;;10.10;;
5912;SDS011;2982;42.684;23.356;2022-09-09T04:54:56;14.73;;;10.48;;
5912;SDS011;2982;42.684;23.356;2022-09-09T04:57:21;10.35;;;9.45;;
5912;SDS011;2982;42.684;23.356;2022-09-09T04:59:46;10.35;;;9.45;;
5912;SDS011;2982;42.684;23.356;2022-09-09T05:02:12;11.02;;;9.20;;
5912;SDS011;2982;42.684;23.356;2022-09-09T05:04:37;9.77;;;8.77;;
5912;SDS011;2982;42.684;23.356;2022-09-09T05:07:02;12.23;;;7.80;;
5912;SDS011;2982;42.684;23.356;2022-09-09T05:09:28;8.57;;;7.88;;
5912;SDS011;2982;42.684;23.356;2022-09-09T05:11:53;14.55;;;8.48;;
5912;SDS011;2982;42.684;23.356;2022-09-09T05:14:18;9.80;;;8.82;;
5912;SDS011;2982;42.684;23.356;2022-09-09T05:16:46;10.23;;;9.25;;
5912;SDS011;2982;42.684;23.356;2022-09-09T05:19:12;9.70;;;8.85;;
5912;SDS011;2982;42.684;23.356;2022-09-09T05:21:37;10.93;;;8.73;;
5912;SDS011;2982;42.684;23.356;2022-09-09T05:24:03;9.25;;;8.00;;
5912;SDS011;2982;42.684;23.356;2022-09-09T05:26:28;10.15;;;7.88;;
5912;SDS011;2982;42.684;23.356;2022-09-09T05:28:54;11.35;;;7.90;;
5912;SDS011;2982;42.684;23.356;2022-09-09T05:31:20;9.00;;;8.23;;
5912;SDS011;2982;42.684;23.356;2022-09-09T05:33:46;9.05;;;7.50;;
5912;SDS011;2982;42.684;23.356;2022-09-09T05:36:13;8.55;;;7.63;;
5912;SDS011;2982;42.684;23.356;2022-09-09T05:38:44;7.97;;;6.93;;
5912;SDS011;2982;42.684;23.356;2022-09-09T05:41:10;7.90;;;7.13;;
5912;SDS011;2982;42.684;23.356;2022-09-09T05:43:36;12.73;;;7.65;;
5912;SDS011;2982;42.684;23.356;2022-09-09T05:46:03;8.93;;;6.63;;
5912;SDS011;2982;42.684;23.356;2022-09-09T05:48:30;8.38;;;6.10;;
5912;SDS011;2982;42.684;23.356;2022-09-09T05:50:57;7.38;;;6.68;;
5912;SDS011;2982;42.684;23.356;2022-09-09T05:53:23;6.50;;;5.95;;
5912;SDS011;2982;42.684;23.356;2022-09-09T05:55:49;7.03;;;6.40;;
5912;SDS011;2982;42.684;23.356;2022-09-09T05:58:14;7.22;;;6.55;;
5912;SDS011;2982;42.684;23.356;2022-09-09T06:00:39;13.25;;;6.38;;
5912;SDS011;2982;42.684;23.356;2022-09-09T06:03:04;8.63;;;5.53;;
5912;SDS011;2982;42.684;23.356;2022-09-09T06:05:30;6.22;;;5.63;;
5912;SDS011;2982;42.684;23.356;2022-09-09T06:07:55;7.43;;;6.05;;
5912;SDS011;2982;42.684;23.356;2022-09-09T06:10:20;5.88;;;5.45;;
5912;SDS011;2982;42.684;23.356;2022-09-09T06:12:46;6.13;;;4.93;;
5912;SDS011;2982;42.684;23.356;2022-09-09T06:15:11;7.20;;;5.82;;
5912;SDS011;2982;42.684;23.356;2022-09-09T06:17:37;10.60;;;6.55;;
5912;SDS011;2982;42.684;23.356;2022-09-09T06:20:02;6.10;;;5.47;;
5912;SDS011;2982;42.684;23.356;2022-09-09T06:22:28;8.95;;;5.82;;
5912;SDS011;2982;42.684;23.356;2022-09-09T06:24:53;10.35;;;6.13;;
5912;SDS011;2982;42.684;23.356;2022-09-09T06:27:18;6.72;;;5.57;;
5912;SDS011;2982;42.684;23.356;2022-09-09T06:29:43;8.40;;;5.53;;
5912;SDS011;2982;42.684;23.356;2022-09-09T06:32:09;6.63;;;6.03;;
5912;SDS011;2982;42.684;23.356;2022-09-09T06:34:36;6.93;;;6.05;;
5912;SDS011;2982;42.684;23.356;2022-09-09T06:37:02;5.60;;;5.10;;
5912;SDS011;2982;42.684;23.356;2022-09-09T06:39:27;6.22;;;5.80;;
5912;SDS011;2982;42.684;23.356;2022-09-09T06:41:53;9.57;;;5.90;;
5912;SDS011;2982;42.684;23.356;2022-09-09T06:44:18;6.00;;;5.60;;
5912;SDS011;2982;42.684;23.356;2022-09-09T06:46:44;6.90;;;4.82;;
5912;SDS011;2982;42.684;23.356;2022-09-09T06:49:09;6.57;;;4.80;;
5912;SDS011;2982;42.684;23.356;2022-09-09T06:51:35;4.50;;;4.20;;
5912;SDS011;2982;42.684;23.356;2022-09-09T06:54:01;7.38;;;4.43;;
5912;SDS011;2982;42.684;23.356;2022-09-09T06:58:58;4.53;;;4.13;;
5912;SDS011;2982;42.684;23.356;2022-09-09T07:01:27;5.60;;;3.88;;
5912;SDS011;2982;42.684;23.356;2022-09-09T07:03:55;5.80;;;3.88;;
5912;SDS011;2982;42.684;23.356;2022-09-09T07:06:25;5.70;;;4.20;;
5912;SDS011;2982;42.684;23.356;2022-09-09T07:08:53;4.32;;;4.05;;
5912;SDS011;2982;42.684;23.356;2022-09-09T07:11:20;5.65;;;3.95;;
5912;SDS011;2982;42.684;23.356;2022-09-09T07:13:47;4.80;;;4.28;;
5912;SDS011;2982;42.684;23.356;2022-09-09T07:16:14;39.65;;;7.22;;
5912;SDS011;2982;42.684;23.356;2022-09-09T07:18:41;4.80;;;4.18;;
5912;SDS011;2982;42.684;23.356;2022-09-09T07:21:07;4.70;;;4.28;;
5912;SDS011;2982;42.684;23.356;2022-09-09T07:23:35;5.97;;;4.07;;
5912;SDS011;2982;42.684;23.356;2022-09-09T07:26:00;7.30;;;4.10;;
5912;SDS011;2982;42.684;23.356;2022-09-09T07:28:25;7.20;;;4.28;;
5912;SDS011;2982;42.684;23.356;2022-09-09T07:30:57;9.07;;;3.90;;
5912;SDS011;2982;42.684;23.356;2022-09-09T07:33:24;4.32;;;3.92;;
5912;SDS011;2982;42.684;23.356;2022-09-09T07:35:51;5.68;;;3.80;;
5912;SDS011;2982;42.684;23.356;2022-09-09T07:38:16;6.93;;;4.32;;
5912;SDS011;2982;42.684;23.356;2022-09-09T07:40:42;4.70;;;4.05;;
5912;SDS011;2982;42.684;23.356;2022-09-09T07:43:07;4.47;;;3.78;;
5912;SDS011;2982;42.684;23.356;2022-09-09T07:45:33;10.55;;;3.90;;
5912;SDS011;2982;42.684;23.356;2022-09-09T07:48:00;4.65;;;4.35;;
5912;SDS011;2982;42.684;23.356;2022-09-09T07:50:25;4.72;;;3.90;;
5912;SDS011;2982;42.684;23.356;2022-09-09T07:52:51;6.00;;;4.60;;
5912;SDS011;2982;42.684;23.356;2022-09-09T07:55:17;4.30;;;3.85;;
5912;SDS011;2982;42.684;23.356;2022-09-09T07:57:42;6.10;;;4.25;;
5912;SDS011;2982;42.684;23.356;2022-09-09T08:00:08;4.97;;;4.18;;
5912;SDS011;2982;42.684;23.356;2022-09-09T08:02:34;4.80;;;4.35;;
5912;SDS011;2982;42.684;23.356;2022-09-09T08:04:59;4.13;;;3.83;;
5912;SDS011;2982;42.684;23.356;2022-09-09T08:07:24;4.28;;;3.92;;
5912;SDS011;2982;42.684;23.356;2022-09-09T08:09:50;7.30;;;4.00;;
5912;SDS011;2982;42.684;23.356;2022-09-09T08:12:15;12.75;;;4.45;;
5912;SDS011;2982;42.684;23.356;2022-09-09T08:14:41;8.88;;;4.18;;
5912;SDS011;2982;42.684;23.356;2022-09-09T08:17:06;7.28;;;3.75;;
5912;SDS011;2982;42.684;23.356;2022-09-09T08:19:31;6.53;;;3.90;;
5912;SDS011;2982;42.684;23.356;2022-09-09T08:21:57;5.53;;;4.60;;
5912;SDS011;2982;42.684;23.356;2022-09-09T08:24:22;5.63;;;4.53;;
5912;SDS011;2982;42.684;23.356;2022-09-09T08:26:48;4.45;;;4.15;;
5912;SDS011;2982;42.684;23.356;2022-09-09T08:29:13;4.55;;;4.13;;
5912;SDS011;2982;42.684;23.356;2022-09-09T08:31:43;5.28;;;4.22;;
5912;SDS011;2982;42.684;23.356;2022-09-09T08:34:18;5.50;;;4.00;;
5912;SDS011;2982;42.684;23.356;2022-09-09T08:36:44;6.50;;;4.80;;
5912;SDS011;2982;42.684;23.356;2022-09-09T08:39:10;6.45;;;5.93;;
5912;SDS011;2982;42.684;23.356;2022-09-09T08:52:25;6.88;;;3.70;;
5912;SDS011;2982;42.684;23.356;2022-09-09T08:54:56;7.97;;;4.32;;
5912;SDS011;2982;42.684;23.356;2022-09-09T08:57:33;8.75;;;4.00;;
5912;SDS011;2982;42.684;23.356;2022-09-09T08:59:59;19.35;;;5.65;;
5912;SDS011;2982;42.684;23.356;2022-09-09T09:05:14;11.00;;;4.55;;
5912;SDS011;2982;42.684;23.356;2022-09-09T09:07:54;6.05;;;3.97;;
5912;SDS011;2982;42.684;23.356;2022-09-09T09:10:48;6.78;;;4.90;;
5912;SDS011;2982;42.684;23.356;2022-09-09T09:15:46;8.68;;;4.68;;
5912;SDS011;2982;42.684;23.356;2022-09-09T09:18:17;8.25;;;4.35;;
5912;SDS011;2982;42.684;23.356;2022-09-09T09:23:29;8.27;;;4.30;;
5912;SDS011;2982;42.684;23.356;2022-09-09T09:26:06;5.28;;;4.10;;
5912;SDS011;2982;42.684;23.356;2022-09-09T09:28:35;5.70;;;4.63;;
5912;SDS011;2982;42.684;23.356;2022-09-09T09:31:09;5.28;;;4.15;;
5912;SDS011;2982;42.684;23.356;2022-09-09T09:33:56;6.60;;;4.57;;
5912;SDS011;2982;42.684;23.356;2022-09-09T09:36:23;5.13;;;4.20;;
5912;SDS011;2982;42.684;23.356;2022-09-09T09:39:04;4.93;;;4.20;;
5912;SDS011;2982;42.684;23.356;2022-09-09T09:41:30;6.50;;;4.45;;
5912;SDS011;2982;42.684;23.356;2022-09-09T09:44:21;7.78;;;3.90;;
5912;SDS011;2982;42.684;23.356;2022-09-09T09:46:51;7.63;;;4.50;;
5912;SDS011;2982;42.684;23.356;2022-09-09T09:49:17;4.40;;;4.00;;
5912;SDS011;2982;42.684;23.356;2022-09-09T09:51:42;10.65;;;4.70;;
5912;SDS011;2982;42.684;23.356;2022-09-09T09:54:22;6.13;;;3.95;;
5912;SDS011;2982;42.684;23.356;2022-09-09T09:56:53;5.85;;;3.72;;
5912;SDS011;2982;42.684;23.356;2022-09-09T10:01:53;5.57;;;4.38;;
5912;SDS011;2982;42.684;23.356;2022-09-09T10:04:21;6.00;;;4.40;;
5912;SDS011;2982;42.684;23.356;2022-09-09T10:06:47;4.57;;;4.25;;
5912;SDS011;2982;42.684;23.356;2022-09-09T10:34:14;6.78;;;4.90;;
5912;SDS011;2982;42.684;23.356;2022-09-09T10:36:49;6.13;;;5.22;;
5912;SDS011;2982;42.684;23.356;2022-09-09T10:44:36;6.45;;;5.35;;
5912;SDS011;2982;42.684;23.356;2022-09-09T10:48:05;9.35;;;5.22;;
5912;SDS011;2982;42.684;23.356;2022-09-09T10:55:35;10.98;;;4.95;;
5912;SDS011;2982;42.684;23.356;2022-09-09T10:58:02;5.07;;;4.70;;
5912;SDS011;2982;42.684;23.356;2022-09-09T11:00:44;8.15;;;5.85;;
5912;SDS011;2982;42.684;23.356;2022-09-09T11:03:17;7.65;;;5.00;;
5912;SDS011;2982;42.684;23.356;2022-09-09T11:05:49;7.38;;;6.00;;
5912;SDS011;2982;42.684;23.356;2022-09-09T11:08:29;9.27;;;5.55;;
5912;SDS011;2982;42.684;23.356;2022-09-09T11:16:29;8.32;;;4.97;;
5912;SDS011;2982;42.684;23.356;2022-09-09T11:21:50;11.23;;;7.13;;
5912;SDS011;2982;42.684;23.356;2022-09-09T11:24:22;9.57;;;5.88;;
5912;SDS011;2982;42.684;23.356;2022-09-09T11:26:54;14.93;;;6.13;;
5912;SDS011;2982;42.684;23.356;2022-09-09T11:40:56;12.23;;;6.70;;
5912;SDS011;2982;42.684;23.356;2022-09-09T11:43:38;9.32;;;6.45;;
5912;SDS011;2982;42.684;23.356;2022-09-09T11:46:04;11.77;;;6.43;;
5912;SDS011;2982;42.684;23.356;2022-09-09T11:48:36;7.53;;;6.88;;
5912;SDS011;2982;42.684;23.356;2022-09-09T11:53:34;17.88;;;6.57;;
5912;SDS011;2982;42.684;23.356;2022-09-09T11:58:28;17.33;;;7.22;;
5912;SDS011;2982;42.684;23.356;2022-09-09T12:00:59;13.30;;;7.15;;
5912;SDS011;2982;42.684;23.356;2022-09-09T12:12:26;10.23;;;6.65;;
5912;SDS011;2982;42.684;23.356;2022-09-09T12:17:46;16.50;;;6.20;;
5912;SDS011;2982;42.684;23.356;2022-09-09T12:27:49;12.73;;;6.68;;
5912;SDS011;2982;42.684;23.356;2022-09-09T12:33:11;8.93;;;6.43;;
5912;SDS011;2982;42.684;23.356;2022-09-09T12:35:38;9.90;;;6.25;;
5912;SDS011;2982;42.684;23.356;2022-09-09T12:38:05;8.80;;;6.85;;
5912;SDS011;2982;42.684;23.356;2022-09-09T12:40:35;11.80;;;7.15;;
5912;SDS011;2982;42.684;23.356;2022-09-09T12:43:01;9.13;;;6.65;;
5912;SDS011;2982;42.684;23.356;2022-09-09T12:45:41;12.70;;;6.70;;
5912;SDS011;2982;42.684;23.356;2022-09-09T12:48:07;8.35;;;6.65;;
5912;SDS011;2982;42.684;23.356;2022-09-09T12:50:35;9.93;;;6.97;;
5912;SDS011;2982;42.684;23.356;2022-09-09T12:53:07;9.55;;;6.30;;
5912;SDS011;2982;42.684;23.356;2022-09-09T12:55:37;12.55;;;6.30;;
5912;SDS011;2982;42.684;23.356;2022-09-09T12:58:04;13.40;;;7.30;;
5912;SDS011;2982;42.684;23.356;2022-09-09T13:00:31;9.23;;;6.15;;
5912;SDS011;2982;42.684;23.356;2022-09-09T13:02:59;11.88;;;6.63;;
5912;SDS011;2982;42.684;23.356;2022-09-09T13:08:10;9.18;;;6.60;;
5912;SDS011;2982;42.684;23.356;2022-09-09T13:10:41;9.18;;;7.10;;
5912;SDS011;2982;42.684;23.356;2022-09-09T13:13:19;11.73;;;7.18;;
5912;SDS011;2982;42.684;23.356;2022-09-09T13:15:58;9.60;;;6.68;;
5912;SDS011;2982;42.684;23.356;2022-09-09T13:18:29;10.85;;;6.82;;
5912;SDS011;2982;42.684;23.356;2022-09-09T13:21:02;8.02;;;7.15;;
5912;SDS011;2982;42.684;23.356;2022-09-09T13:23:29;11.10;;;6.95;;
5912;SDS011;2982;42.684;23.356;2022-09-09T13:25:58;11.13;;;7.00;;
5912;SDS011;2982;42.684;23.356;2022-09-09T13:28:28;8.35;;;6.43;;
5912;SDS011;2982;42.684;23.356;2022-09-09T13:31:04;19.52;;;7.10;;
5912;SDS011;2982;42.684;23.356;2022-09-09T13:33:44;11.82;;;7.20;;
5912;SDS011;2982;42.684;23.356;2022-09-09T13:36:09;7.93;;;6.57;;
5912;SDS011;2982;42.684;23.356;2022-09-09T13:38:53;13.80;;;7.05;;
5912;SDS011;2982;42.684;23.356;2022-09-09T13:41:23;9.98;;;6.38;;
5912;SDS011;2982;42.684;23.356;2022-09-09T13:43:59;11.35;;;5.95;;
5912;SDS011;2982;42.684;23.356;2022-09-09T13:49:01;10.95;;;6.50;;
5912;SDS011;2982;42.684;23.356;2022-09-09T13:51:44;14.52;;;6.68;;
5912;SDS011;2982;42.684;23.356;2022-09-09T13:54:11;10.40;;;7.10;;
5912;SDS011;2982;42.684;23.356;2022-09-09T13:56:39;9.15;;;6.70;;
5912;SDS011;2982;42.684;23.356;2022-09-09T13:59:06;9.38;;;7.20;;
5912;SDS011;2982;42.684;23.356;2022-09-09T14:01:35;14.23;;;7.68;;
5912;SDS011;2982;42.684;23.356;2022-09-09T14:04:01;10.63;;;7.32;;
5912;SDS011;2982;42.684;23.356;2022-09-09T14:06:26;15.75;;;7.40;;
5912;SDS011;2982;42.684;23.356;2022-09-09T14:08:52;11.57;;;6.43;;
5912;SDS011;2982;42.684;23.356;2022-09-09T14:11:18;11.43;;;6.78;;
5912;SDS011;2982;42.684;23.356;2022-09-09T14:13:43;11.75;;;6.60;;
5912;SDS011;2982;42.684;23.356;2022-09-09T14:16:09;11.32;;;6.93;;
5912;SDS011;2982;42.684;23.356;2022-09-09T14:18:34;9.02;;;6.15;;
5912;SDS011;2982;42.684;23.356;2022-09-09T14:21:00;8.57;;;6.55;;
5912;SDS011;2982;42.684;23.356;2022-09-09T14:23:25;6.18;;;5.55;;
5912;SDS011;2982;42.684;23.356;2022-09-09T14:25:51;12.52;;;6.43;;
5912;SDS011;2982;42.684;23.356;2022-09-09T14:28:16;10.93;;;7.13;;
5912;SDS011;2982;42.684;23.356;2022-09-09T14:30:42;11.90;;;6.68;;
5912;SDS011;2982;42.684;23.356;2022-09-09T14:33:09;13.65;;;7.03;;
5912;SDS011;2982;42.684;23.356;2022-09-09T14:35:36;14.25;;;6.75;;
5912;SDS011;2982;42.684;23.356;2022-09-09T14:38:02;7.05;;;6.35;;
5912;SDS011;2982;42.684;23.356;2022-09-09T14:40:28;16.15;;;6.15;;
5912;SDS011;2982;42.684;23.356;2022-09-09T14:42:54;10.95;;;7.57;;
5912;SDS011;2982;42.684;23.356;2022-09-09T14:45:19;10.93;;;6.10;;
5912;SDS011;2982;42.684;23.356;2022-09-09T14:47:44;11.32;;;6.63;;
5912;SDS011;2982;42.684;23.356;2022-09-09T14:50:10;13.98;;;6.53;;
5912;SDS011;2982;42.684;23.356;2022-09-09T14:52:35;7.53;;;6.90;;
5912;SDS011;2982;42.684;23.356;2022-09-09T14:55:00;10.50;;;6.05;;
5912;SDS011;2982;42.684;23.356;2022-09-09T14:57:26;8.45;;;5.15;;
5912;SDS011;2982;42.684;23.356;2022-09-09T14:59:51;10.48;;;5.50;;
5912;SDS011;2982;42.684;23.356;2022-09-09T15:02:16;9.98;;;6.40;;
5912;SDS011;2982;42.684;23.356;2022-09-09T15:04:41;15.93;;;6.57;;
5912;SDS011;2982;42.684;23.356;2022-09-09T15:07:07;10.20;;;6.28;;
5912;SDS011;2982;42.684;23.356;2022-09-09T15:09:32;9.60;;;6.82;;
5912;SDS011;2982;42.684;23.356;2022-09-09T15:11:57;9.65;;;6.97;;
5912;SDS011;2982;42.684;23.356;2022-09-09T15:14:23;7.85;;;7.22;;
5912;SDS011;2982;42.684;23.356;2022-09-09T15:16:48;17.08;;;7.28;;
5912;SDS011;2982;42.684;23.356;2022-09-09T15:19:13;10.85;;;6.85;;
5912;SDS011;2982;42.684;23.356;2022-09-09T15:21:39;13.20;;;8.05;;
5912;SDS011;2982;42.684;23.356;2022-09-09T15:24:04;13.20;;;7.82;;
5912;SDS011;2982;42.684;23.356;2022-09-09T15:26:31;12.45;;;7.22;;
5912;SDS011;2982;42.684;23.356;2022-09-09T15:28:56;12.50;;;6.93;;
5912;SDS011;2982;42.684;23.356;2022-09-09T15:31:26;10.98;;;7.00;;
5912;SDS011;2982;42.684;23.356;2022-09-09T15:33:54;14.07;;;7.70;;
5912;SDS011;2982;42.684;23.356;2022-09-09T15:36:24;9.70;;;6.32;;
5912;SDS011;2982;42.684;23.356;2022-09-09T15:38:51;9.73;;;7.20;;
5912;SDS011;2982;42.684;23.356;2022-09-09T15:41:17;8.27;;;6.90;;
5912;SDS011;2982;42.684;23.356;2022-09-09T15:43:44;10.13;;;6.78;;
5912;SDS011;2982;42.684;23.356;2022-09-09T15:46:30;11.13;;;6.95;;
5912;SDS011;2982;42.684;23.356;2022-09-09T15:49:18;12.98;;;7.65;;
5912;SDS011;2982;42.684;23.356;2022-09-09T15:51:44;11.05;;;7.10;;
5912;SDS011;2982;42.684;23.356;2022-09-09T15:54:12;10.00;;;7.07;;
5912;SDS011;2982;42.684;23.356;2022-09-09T15:56:39;10.98;;;7.43;;
5912;SDS011;2982;42.684;23.356;2022-09-09T15:59:05;12.23;;;7.50;;
5912;SDS011;2982;42.684;23.356;2022-09-09T16:01:31;11.60;;;6.60;;
5912;SDS011;2982;42.684;23.356;2022-09-09T16:03:57;11.15;;;7.00;;
5912;SDS011;2982;42.684;23.356;2022-09-09T16:06:23;12.52;;;6.88;;
5912;SDS011;2982;42.684;23.356;2022-09-09T16:08:50;10.70;;;7.20;;
5912;SDS011;2982;42.684;23.356;2022-09-09T16:11:27;16.17;;;7.57;;
5912;SDS011;2982;42.684;23.356;2022-09-09T16:13:55;12.93;;;8.00;;
5912;SDS011;2982;42.684;23.356;2022-09-09T16:16:21;18.52;;;11.52;;
5912;SDS011;2982;42.684;23.356;2022-09-09T16:18:53;26.45;;;16.75;;
5912;SDS011;2982;42.684;23.356;2022-09-09T16:21:21;26.55;;;19.17;;
5912;SDS011;2982;42.684;23.356;2022-09-09T16:23:51;25.17;;;18.15;;
5912;SDS011;2982;42.684;23.356;2022-09-09T16:26:18;24.48;;;14.27;;
5912;SDS011;2982;42.684;23.356;2022-09-09T16:28:43;23.75;;;15.98;;
5912;SDS011;2982;42.684;23.356;2022-09-09T16:31:18;23.13;;;15.13;;
5912;SDS011;2982;42.684;23.356;2022-09-09T16:33:46;20.98;;;14.20;;
5912;SDS011;2982;42.684;23.356;2022-09-09T16:36:12;21.80;;;13.73;;
5912;SDS011;2982;42.684;23.356;2022-09-09T16:38:39;18.27;;;10.98;;
5912;SDS011;2982;42.684;23.356;2022-09-09T16:41:05;21.40;;;11.57;;
5912;SDS011;2982;42.684;23.356;2022-09-09T16:43:32;12.13;;;9.70;;
5912;SDS011;2982;42.684;23.356;2022-09-09T16:45:59;17.27;;;9.48;;
5912;SDS011;2982;42.684;23.356;2022-09-09T16:48:24;14.23;;;9.10;;
5912;SDS011;2982;42.684;23.356;2022-09-09T16:50:49;16.13;;;9.63;;
5912;SDS011;2982;42.684;23.356;2022-09-09T16:53:15;24.10;;;10.00;;
5912;SDS011;2982;42.684;23.356;2022-09-09T16:55:41;18.95;;;10.13;;
5912;SDS011;2982;42.684;23.356;2022-09-09T16:58:12;15.88;;;9.90;;
5912;SDS011;2982;42.684;23.356;2022-09-09T17:00:37;15.40;;;11.68;;
5912;SDS011;2982;42.684;23.356;2022-09-09T17:03:03;15.95;;;11.15;;
5912;SDS011;2982;42.684;23.356;2022-09-09T17:05:28;18.25;;;11.45;;
5912;SDS011;2982;42.684;23.356;2022-09-09T17:07:54;25.02;;;12.82;;
5912;SDS011;2982;42.684;23.356;2022-09-09T17:10:20;22.60;;;12.95;;
5912;SDS011;2982;42.684;23.356;2022-09-09T17:12:45;22.42;;;12.25;;
5912;SDS011;2982;42.684;23.356;2022-09-09T17:15:10;16.98;;;11.02;;
5912;SDS011;2982;42.684;23.356;2022-09-09T17:17:36;21.50;;;12.38;;
5912;SDS011;2982;42.684;23.356;2022-09-09T17:20:01;13.07;;;11.55;;
5912;SDS011;2982;42.684;23.356;2022-09-09T17:22:26;22.15;;;10.90;;
5912;SDS011;2982;42.684;23.356;2022-09-09T17:24:52;17.80;;;11.38;;
5912;SDS011;2982;42.684;23.356;2022-09-09T17:27:17;17.10;;;10.40;;
5912;SDS011;2982;42.684;23.356;2022-09-09T17:29:42;18.77;;;10.20;;
5912;SDS011;2982;42.684;23.356;2022-09-09T17:32:07;16.83;;;9.38;;
5912;SDS011;2982;42.684;23.356;2022-09-09T17:34:33;18.08;;;9.70;;